createdAt,value
2022-09-28T00:02:55.141Z,1
2022-09-28T00:04:30.364Z,1
2022-09-28T00:06:21.735Z,1
2022-09-28T00:08:01.305Z,1
2022-09-28T00:09:47.515Z,1
2022-09-28T00:11:24.226Z,1
2022-09-28T00:16:42.178Z,1
2022-09-28T00:18:16.791Z,1
2022-09-28T00:23:26.743Z,0
2022-09-28T00:25:10.150Z,1
2022-09-28T00:26:53.533Z,1
2022-09-28T00:28:41.062Z,0
2022-09-28T00:33:46.439Z,2
2022-09-28T00:35:29.575Z,1
2022-09-28T00:40:39.762Z,1
2022-09-28T00:42:24.190Z,1
2022-09-28T00:45:50.205Z,1
2022-09-28T00:47:39.266Z,1
2022-09-28T00:49:31.320Z,1
2022-09-28T00:52:46.026Z,0
2022-09-28T00:55:00.186Z,2
2022-09-28T01:01:24.773Z,2
2022-09-28T01:03:04.479Z,1
2022-09-28T01:08:42.862Z,1
2022-09-28T01:13:24.520Z,0
2022-09-28T01:18:59.591Z,1
2022-09-28T01:19:32.840Z,1
2022-09-28T01:20:19.705Z,1
2022-09-28T01:23:44.335Z,1
2022-09-28T01:25:33.260Z,1
2022-09-28T01:27:11.373Z,0
2022-09-28T01:28:55.573Z,1
2022-09-28T01:30:38.422Z,1
2022-09-28T01:35:55.625Z,0
2022-09-28T01:40:57.549Z,1
2022-09-28T01:42:48.988Z,1
2022-09-28T01:44:25.943Z,1
2022-09-28T01:46:07.797Z,1
2022-09-28T01:51:17.734Z,1
2022-09-28T01:53:09.301Z,0
2022-09-28T01:57:17.876Z,1
2022-09-28T01:58:11.625Z,1
2022-09-28T02:00:17.921Z,1
2022-09-28T02:01:38.672Z,1
2022-09-28T02:03:44.406Z,1
2022-09-28T02:06:55.876Z,1
2022-09-28T02:10:23.215Z,1
2022-09-28T02:12:13.307Z,1
2022-09-28T02:13:43.279Z,2
2022-09-28T02:15:26.405Z,1
2022-09-28T02:17:09.279Z,1
2022-09-28T02:18:53.007Z,0
2022-09-28T02:20:39.838Z,0
2022-09-28T02:22:21.820Z,1
2022-09-28T02:24:03.089Z,1
2022-09-28T02:30:56.151Z,1
2022-09-28T02:32:39.586Z,1
2022-09-28T02:34:23.525Z,1
2022-09-28T02:36:07.429Z,1
2022-09-28T02:37:50.044Z,1
2022-09-28T02:39:33.392Z,1
2022-09-28T02:41:16.550Z,1
2022-09-28T02:46:32.749Z,1
2022-09-28T02:48:09.471Z,1
2022-09-28T02:51:36.630Z,1
2022-09-28T02:53:19.321Z,1
2022-09-28T02:55:03.016Z,0
2022-09-28T02:57:21.630Z,1
2022-09-28T03:00:23.675Z,1
2022-09-28T03:03:39.393Z,1
2022-09-28T03:05:22.798Z,1
2022-09-28T03:07:06.482Z,1
2022-09-28T03:08:49.593Z,1
2022-09-28T03:10:33.262Z,1
2022-09-28T03:12:16.389Z,1
2022-09-28T03:13:59.769Z,1
2022-09-28T03:17:27.244Z,1
2022-09-28T03:19:11.167Z,1
2022-09-28T03:20:56.708Z,0
2022-09-28T03:22:37.088Z,1
2022-09-28T03:24:20.767Z,1
2022-09-28T03:26:03.848Z,2
2022-09-28T03:27:47.297Z,1
2022-09-28T03:29:30.907Z,0
2022-09-28T03:31:14.308Z,1
2022-09-28T03:32:58.006Z,2
2022-09-28T03:36:24.183Z,1
2022-09-28T03:38:07.332Z,1
2022-09-28T03:41:34.106Z,0
2022-09-28T03:43:26.343Z,1
2022-09-28T03:45:02.058Z,1
2022-09-28T03:46:44.297Z,1
2022-09-28T03:48:28.822Z,2
2022-09-28T03:50:11.346Z,1
2022-09-28T03:51:57.025Z,1
2022-09-28T03:53:44.327Z,1
2022-09-28T03:55:22.710Z,0
2022-09-28T03:57:04.966Z,1
2022-09-28T03:58:48.987Z,0
2022-09-28T04:00:31.781Z,0
2022-09-28T04:02:19.621Z,1
2022-09-28T04:04:00.869Z,1
2022-09-28T04:05:44.186Z,0
2022-09-28T04:11:09.787Z,1
2022-09-28T04:12:37.617Z,1
2022-09-28T04:14:19.761Z,0
2022-09-28T04:16:02.312Z,1
2022-09-28T04:17:45.402Z,1
2022-09-28T04:19:29.677Z,1
2022-09-28T04:21:12.190Z,1
2022-09-28T04:26:23.192Z,1
2022-09-28T04:28:05.461Z,1
2022-09-28T04:29:49.480Z,1
2022-09-28T04:31:33.402Z,1
2022-09-28T04:33:15.652Z,1
2022-09-28T04:34:59.322Z,1
2022-09-28T04:37:22.269Z,0
2022-09-28T04:40:02.364Z,1
2022-09-28T04:40:14.202Z,1
2022-09-28T04:43:36.046Z,1
2022-09-28T04:45:20.143Z,1
2022-09-28T04:47:02.810Z,1
2022-09-28T04:48:46.164Z,1
2022-09-28T04:50:31.623Z,1
2022-09-28T04:52:13.011Z,1
2022-09-28T04:53:56.088Z,1
2022-09-28T04:55:39.530Z,1
2022-09-28T05:00:49.018Z,1
2022-09-28T05:02:32.705Z,1
2022-09-28T05:05:59.223Z,2
2022-09-28T05:07:42.951Z,1
2022-09-28T05:09:25.733Z,1
2022-09-28T05:11:09.119Z,1
2022-09-28T05:12:53.102Z,1
2022-09-28T05:14:35.941Z,1
2022-09-28T05:18:03.225Z,1
2022-09-28T05:19:45.785Z,1
2022-09-28T05:21:29.149Z,2
2022-09-28T05:23:13.157Z,1
2022-09-28T05:24:55.994Z,2
2022-09-28T05:26:48.561Z,1
2022-09-28T05:28:22.756Z,1
2022-09-28T05:30:06.207Z,1
2022-09-28T05:31:49.540Z,2
2022-09-28T05:35:16.032Z,3
2022-09-28T05:36:59.724Z,1
2022-09-28T05:38:52.036Z,1
2022-09-28T05:40:26.228Z,2
2022-09-28T05:42:09.603Z,2
2022-09-28T05:43:53.357Z,1
2022-09-28T05:45:36.689Z,1
2022-09-28T05:47:20.051Z,2
2022-09-28T05:52:29.293Z,3
2022-09-28T05:54:12.441Z,3
2022-09-28T05:55:56.122Z,3
2022-09-28T05:57:40.402Z,3
2022-09-28T05:59:22.639Z,3
2022-09-28T06:01:06.003Z,2
2022-09-28T06:10:00.686Z,2
2022-09-28T06:11:26.132Z,2
2022-09-28T06:13:09.474Z,2
2022-09-28T06:14:54.016Z,3
2022-09-28T06:16:36.252Z,4
2022-09-28T06:20:03.587Z,7
2022-09-28T06:21:46.772Z,6
2022-09-28T06:23:31.291Z,4
2022-09-28T06:26:56.880Z,5
2022-09-28T06:28:39.713Z,6
2022-09-28T06:30:23.138Z,5
2022-09-28T06:32:07.658Z,6
2022-09-28T06:33:50.240Z,7
2022-09-28T06:35:33.582Z,9
2022-09-28T06:37:17.030Z,7
2022-09-28T06:39:00.111Z,18
2022-09-28T06:44:09.618Z,24
2022-09-28T06:45:53.266Z,24
2022-09-28T06:47:36.125Z,25
2022-09-28T06:49:27.506Z,25
2022-09-28T06:51:02.912Z,24
2022-09-28T06:52:46.596Z,22
2022-09-28T06:54:29.745Z,18
2022-09-28T06:56:13.096Z,21
2022-09-28T07:01:22.670Z,19
2022-09-28T07:03:05.758Z,20
2022-09-28T07:04:50.332Z,19
2022-09-28T07:06:32.527Z,20
2022-09-28T07:08:16.211Z,22
2022-09-28T07:09:59.737Z,28
2022-09-28T07:15:11.588Z,35
2022-09-28T07:16:53.237Z,35
2022-09-28T07:18:36.611Z,33
2022-09-28T07:20:20.181Z,33
2022-09-28T07:22:03.443Z,36
2022-09-28T07:23:46.965Z,39
2022-09-28T07:25:30.267Z,42
2022-09-28T07:27:13.581Z,46
2022-09-28T07:28:57.005Z,47
2022-09-28T07:30:40.454Z,50
2022-09-28T07:34:06.854Z,50
2022-09-28T07:35:50.289Z,51
2022-09-28T07:37:33.655Z,56
2022-09-28T07:39:17.106Z,63
2022-09-28T07:41:00.422Z,71
2022-09-28T07:42:43.852Z,77
2022-09-28T07:44:27.259Z,77
2022-09-28T07:46:10.706Z,385
2022-09-28T07:47:54.025Z,404
2022-09-28T07:51:20.548Z,393
2022-09-28T07:53:03.901Z,385
2022-09-28T07:54:47.297Z,415
2022-09-28T07:56:30.738Z,435
2022-09-28T07:58:14.086Z,448
2022-09-28T07:59:57.502Z,437
2022-09-28T08:01:40.871Z,436
2022-09-28T08:03:24.265Z,453
2022-09-28T08:05:07.711Z,456
2022-09-28T08:06:51.388Z,428
2022-09-28T08:08:34.840Z,416
2022-09-28T08:10:18.160Z,426
2022-09-28T08:12:01.588Z,475
2022-09-28T08:13:44.959Z,496
2022-09-28T08:15:28.357Z,486
2022-09-28T08:17:11.791Z,479
2022-09-28T08:18:55.149Z,481
2022-09-28T08:20:38.554Z,474
2022-09-28T08:24:05.081Z,446
2022-09-28T08:25:48.417Z,445
2022-09-28T08:27:31.867Z,400
2022-09-28T08:29:15.200Z,292
2022-09-28T08:30:58.599Z,227
2022-09-28T08:32:42.040Z,248
2022-09-28T08:34:25.398Z,273
2022-09-28T08:36:08.800Z,290
2022-09-28T08:39:35.319Z,242
2022-09-28T08:41:18.655Z,219
2022-09-28T08:43:02.080Z,223
2022-09-28T08:44:45.474Z,212
2022-09-28T08:46:28.848Z,248
2022-09-28T08:48:12.287Z,375
2022-09-28T08:49:55.708Z,493
2022-09-28T08:51:39.065Z,599
2022-09-28T08:53:22.487Z,721
2022-09-28T08:55:06.172Z,744
2022-09-28T08:56:49.523Z,684
2022-09-28T08:58:32.933Z,632
2022-09-28T09:00:16.373Z,707
2022-09-28T09:01:59.826Z,777
2022-09-28T09:03:43.127Z,777
2022-09-28T09:05:26.496Z,759
2022-09-28T09:07:09.918Z,643
2022-09-28T09:08:53.333Z,657
2022-09-28T09:10:37.019Z,778
2022-09-28T09:12:20.393Z,777
2022-09-28T09:14:03.810Z,778
2022-09-28T09:15:47.226Z,778
2022-09-28T09:17:30.665Z,778
2022-09-28T09:19:13.977Z,741
2022-09-28T09:20:57.460Z,699
2022-09-28T09:22:40.788Z,778
2022-09-28T09:24:24.184Z,777
2022-09-28T09:27:50.718Z,778
2022-09-28T09:29:34.055Z,778
2022-09-28T09:31:17.460Z,778
2022-09-28T09:33:00.927Z,778
2022-09-28T09:34:44.231Z,778
2022-09-28T09:36:27.697Z,777
2022-09-28T09:38:11.068Z,777
2022-09-28T09:39:54.466Z,777
2022-09-28T09:45:03.680Z,777
2022-09-28T09:46:47.111Z,777
2022-09-28T09:48:30.486Z,777
2022-09-28T09:50:13.875Z,778
2022-09-28T09:51:57.245Z,777
2022-09-28T09:53:40.645Z,778
2022-09-28T09:55:24.077Z,778
2022-09-28T09:57:07.511Z,778
2022-09-28T09:58:50.844Z,767
2022-09-28T10:00:34.551Z,777
2022-09-28T10:02:17.965Z,778
2022-09-28T10:04:01.371Z,777
2022-09-28T10:05:44.723Z,779
2022-09-28T10:07:28.164Z,778
2022-09-28T10:09:11.511Z,777
2022-09-28T10:10:54.920Z,709
2022-09-28T10:12:38.363Z,655
2022-09-28T10:14:21.702Z,595
2022-09-28T10:16:05.126Z,581
2022-09-28T10:19:31.585Z,644
2022-09-28T10:21:15.030Z,636
2022-09-28T10:22:58.401Z,687
2022-09-28T10:24:41.773Z,640
2022-09-28T10:26:25.177Z,585
2022-09-28T10:28:08.613Z,560
2022-09-28T10:29:51.947Z,548
2022-09-28T10:31:35.374Z,581
2022-09-28T10:33:18.740Z,654
2022-09-28T10:36:45.216Z,649
2022-09-28T10:38:28.657Z,647
2022-09-28T10:40:12.003Z,710
2022-09-28T10:41:55.418Z,731
2022-09-28T10:43:38.868Z,682
2022-09-28T10:45:22.195Z,604
2022-09-28T10:47:05.620Z,614
2022-09-28T10:48:48.995Z,654
2022-09-28T10:50:32.393Z,688
2022-09-28T10:53:58.903Z,745
2022-09-28T10:55:42.262Z,777
2022-09-28T10:57:25.675Z,777
2022-09-28T10:59:09.065Z,752
2022-09-28T11:00:52.463Z,737
2022-09-28T11:02:35.873Z,725
2022-09-28T11:04:19.246Z,746
2022-09-28T11:06:02.645Z,778
2022-09-28T11:07:46.085Z,768
2022-09-28T11:09:29.751Z,776
2022-09-28T11:11:13.127Z,758
2022-09-28T11:12:56.531Z,778
2022-09-28T11:14:39.950Z,777
2022-09-28T11:16:23.301Z,758
2022-09-28T11:18:06.718Z,736
2022-09-28T11:19:50.168Z,776
2022-09-28T11:21:33.506Z,777
2022-09-28T11:26:42.745Z,777
2022-09-28T11:28:26.157Z,778
2022-09-28T11:30:09.542Z,777
2022-09-28T11:31:52.950Z,778
2022-09-28T11:33:36.365Z,778
2022-09-28T11:35:19.730Z,777
2022-09-28T11:37:03.131Z,778
2022-09-28T11:38:46.578Z,778
2022-09-28T11:42:13.000Z,777
2022-09-28T11:43:56.417Z,777
2022-09-28T11:45:39.865Z,777
2022-09-28T11:47:23.192Z,778
2022-09-28T11:49:06.607Z,777
2022-09-28T11:50:49.990Z,777
2022-09-28T11:52:33.383Z,777
2022-09-28T11:54:16.815Z,777
2022-09-28T11:56:00.180Z,777
2022-09-28T11:59:26.659Z,777
2022-09-28T12:01:10.108Z,777
2022-09-28T12:02:53.425Z,776
2022-09-28T12:04:36.858Z,735
2022-09-28T12:06:20.220Z,777
2022-09-28T12:08:03.626Z,778
2022-09-28T12:09:47.068Z,778
2022-09-28T12:11:30.419Z,777
2022-09-28T12:16:39.644Z,777
2022-09-28T12:18:23.063Z,777
2022-09-28T12:20:06.439Z,777
2022-09-28T12:21:49.839Z,777
2022-09-28T12:23:33.265Z,778
2022-09-28T12:25:16.645Z,778
2022-09-28T12:27:00.034Z,778
2022-09-28T12:28:43.468Z,778
2022-09-28T12:33:52.714Z,778
2022-09-28T12:35:36.072Z,778
2022-09-28T12:37:19.481Z,778
2022-09-28T12:39:02.914Z,778
2022-09-28T12:40:46.257Z,778
2022-09-28T12:42:29.695Z,778
2022-09-28T12:44:13.053Z,777
2022-09-28T12:45:56.479Z,778
2022-09-28T12:51:05.678Z,778
2022-09-28T12:52:49.121Z,777
2022-09-28T12:54:32.479Z,777
2022-09-28T12:56:15.880Z,777
2022-09-28T12:57:59.324Z,467
2022-09-28T12:59:42.655Z,437
2022-09-28T13:01:26.086Z,428
2022-09-28T13:03:09.458Z,446
2022-09-28T13:06:35.934Z,416
2022-09-28T13:08:19.376Z,421
2022-09-28T13:10:02.733Z,424
2022-09-28T13:11:46.132Z,432
2022-09-28T13:13:29.568Z,435
2022-09-28T13:15:12.935Z,416
2022-09-28T13:16:56.333Z,382
2022-09-28T13:18:39.695Z,357
2022-09-28T13:20:23.109Z,331
2022-09-28T13:22:06.803Z,318
2022-09-28T13:23:50.210Z,309
2022-09-28T13:25:33.653Z,294
2022-09-28T13:27:17.027Z,289
2022-09-28T13:29:00.425Z,227
2022-09-28T13:30:43.790Z,263
2022-09-28T13:32:27.194Z,284
2022-09-28T13:34:10.623Z,284
2022-09-28T13:37:37.043Z,285
2022-09-28T13:39:20.464Z,289
2022-09-28T13:41:03.902Z,281
2022-09-28T13:42:47.243Z,291
2022-09-28T13:44:30.663Z,305
2022-09-28T13:46:14.030Z,300
2022-09-28T13:47:57.435Z,280
2022-09-28T13:49:40.907Z,283
2022-09-28T13:53:07.298Z,318
2022-09-28T13:54:50.711Z,325
2022-09-28T13:56:34.084Z,333
2022-09-28T13:58:17.478Z,316
2022-09-28T14:00:00.910Z,299
2022-09-28T14:01:44.292Z,297
2022-09-28T14:03:27.676Z,313
2022-09-28T14:05:11.112Z,311
2022-09-28T14:08:37.548Z,350
2022-09-28T14:10:20.972Z,338
2022-09-28T14:12:04.347Z,350
2022-09-28T14:13:47.732Z,334
2022-09-28T14:15:31.163Z,340
2022-09-28T14:17:14.528Z,329
2022-09-28T14:18:57.925Z,321
2022-09-28T14:20:41.366Z,331
2022-09-28T14:24:07.783Z,336
2022-09-28T14:25:51.208Z,334
2022-09-28T14:27:34.573Z,340
2022-09-28T14:29:17.967Z,345
2022-09-28T14:31:01.409Z,355
2022-09-28T14:32:44.769Z,305
2022-09-28T14:34:28.168Z,366
2022-09-28T14:36:11.618Z,348
2022-09-28T14:39:38.041Z,259
2022-09-28T14:41:21.469Z,294
2022-09-28T14:43:04.813Z,298
2022-09-28T14:44:48.223Z,274
2022-09-28T14:46:31.653Z,302
2022-09-28T14:48:15.006Z,325
2022-09-28T14:49:58.414Z,611
2022-09-28T14:51:41.857Z,270
2022-09-28T14:55:08.273Z,302
2022-09-28T14:56:51.693Z,289
2022-09-28T14:58:35.070Z,333
2022-09-28T15:00:18.473Z,356
2022-09-28T15:02:01.900Z,311
2022-09-28T15:03:45.257Z,509
2022-09-28T15:05:28.666Z,557
2022-09-28T15:10:37.906Z,482
2022-09-28T15:12:21.280Z,517
2022-09-28T15:14:04.674Z,654
2022-09-28T15:15:48.106Z,613
2022-09-28T15:19:14.873Z,553
2022-09-28T15:20:58.309Z,500
2022-09-28T15:22:41.664Z,498
2022-09-28T15:24:25.383Z,479
2022-09-28T15:26:08.767Z,481
2022-09-28T15:27:52.191Z,534
2022-09-28T15:29:35.561Z,560
2022-09-28T15:31:18.954Z,502
2022-09-28T15:33:02.402Z,549
2022-09-28T15:34:45.759Z,475
2022-09-28T15:36:29.157Z,543
2022-09-28T15:39:55.685Z,438
2022-09-28T15:41:39.008Z,415
2022-09-28T15:43:22.439Z,420
2022-09-28T15:45:05.811Z,421
2022-09-28T15:46:49.217Z,382
2022-09-28T15:48:32.641Z,376
2022-09-28T15:50:16.018Z,370
2022-09-28T15:51:59.407Z,367
2022-09-28T15:53:43.093Z,363
2022-09-28T15:55:26.542Z,354
2022-09-28T15:57:09.880Z,345
2022-09-28T15:58:53.299Z,338
2022-09-28T16:00:36.761Z,331
2022-09-28T16:02:20.077Z,335
2022-09-28T16:04:03.523Z,357
2022-09-28T16:05:46.860Z,317
2022-09-28T16:09:13.340Z,322
2022-09-28T16:10:56.770Z,323
2022-09-28T16:12:40.126Z,307
2022-09-28T16:14:23.538Z,326
2022-09-28T16:16:06.986Z,301
2022-09-28T16:17:50.319Z,286
2022-09-28T16:19:33.739Z,275
2022-09-28T16:24:42.990Z,275
2022-09-28T16:26:26.356Z,261
2022-09-28T16:28:09.748Z,247
2022-09-28T16:29:53.179Z,238
2022-09-28T16:31:36.543Z,234
2022-09-28T16:33:19.945Z,231
2022-09-28T16:35:03.384Z,226
2022-09-28T16:36:46.734Z,227
2022-09-28T16:38:30.420Z,203
2022-09-28T16:40:13.829Z,185
2022-09-28T16:41:57.266Z,171
2022-09-28T16:43:40.617Z,156
2022-09-28T16:45:24.032Z,136
2022-09-28T16:47:07.503Z,119
2022-09-28T16:48:50.805Z,108
2022-09-28T16:50:34.234Z,100
2022-09-28T16:54:00.674Z,86
2022-09-28T16:55:44.096Z,80
2022-09-28T16:57:27.518Z,70
2022-09-28T16:59:10.887Z,64
2022-09-28T17:00:54.286Z,56
2022-09-28T17:02:37.725Z,48
2022-09-28T17:04:21.072Z,33
2022-09-28T17:09:30.309Z,32
2022-09-28T17:11:13.725Z,29
2022-09-28T17:12:57.246Z,22
2022-09-28T17:14:40.665Z,13
2022-09-28T17:16:24.066Z,13
2022-09-28T17:18:07.755Z,11
2022-09-28T17:19:50.808Z,9
2022-09-28T17:23:17.312Z,9
2022-09-28T17:25:00.687Z,8
2022-09-28T17:26:44.134Z,8
2022-09-28T17:28:27.492Z,8
2022-09-28T17:30:10.742Z,8
2022-09-28T17:31:54.377Z,8
2022-09-28T17:33:37.648Z,8
2022-09-28T17:35:21.077Z,8
2022-09-28T17:37:04.635Z,8
2022-09-28T17:38:48.197Z,8
2022-09-28T17:40:31.571Z,8
2022-09-28T17:42:14.935Z,8
2022-09-28T17:43:58.407Z,8
2022-09-28T17:45:41.646Z,9
2022-09-28T17:47:25.186Z,7
2022-09-28T17:49:08.549Z,8
2022-09-28T17:52:35.018Z,8
2022-09-28T17:54:18.531Z,8
2022-09-28T17:56:01.799Z,9
2022-09-28T17:57:45.200Z,8
2022-09-28T17:59:28.650Z,9
2022-09-28T18:01:11.861Z,9
2022-09-28T18:02:55.267Z,8
2022-09-28T18:04:38.835Z,8
2022-09-28T18:06:22.487Z,8
2022-09-28T18:08:05.772Z,8
2022-09-28T18:09:49.145Z,9
2022-09-28T18:11:32.752Z,8
2022-09-28T18:13:16.065Z,8
2022-09-28T18:14:59.514Z,8
2022-09-28T18:16:42.930Z,8
2022-09-28T18:18:26.135Z,8
2022-09-28T18:21:52.787Z,8
2022-09-28T18:23:36.139Z,7
2022-09-28T18:25:19.564Z,7
2022-09-28T18:27:02.994Z,7
2022-09-28T18:28:46.332Z,5
2022-09-28T18:30:29.762Z,552
2022-09-28T18:32:13.120Z,550
2022-09-28T18:33:56.527Z,547
2022-09-28T18:35:40.236Z,545
2022-09-28T18:37:23.484Z,543
2022-09-28T18:39:07.022Z,541
2022-09-28T18:40:50.426Z,540
2022-09-28T18:42:33.824Z,538
2022-09-28T18:44:17.195Z,15
2022-09-28T18:46:00.573Z,14
2022-09-28T18:47:44.032Z,15
2022-09-28T18:51:10.460Z,8
2022-09-28T18:52:53.839Z,8
2022-09-28T18:54:37.212Z,8
2022-09-28T18:56:20.648Z,8
2022-09-28T18:58:03.937Z,8
2022-09-28T18:59:47.464Z,8
2022-09-28T19:01:30.796Z,8
2022-09-28T19:06:40.085Z,7
2022-09-28T19:08:23.536Z,8
2022-09-28T19:10:06.883Z,8
2022-09-28T19:11:50.309Z,8
2022-09-28T19:13:33.770Z,8
2022-09-28T19:15:17.033Z,8
2022-09-28T19:17:00.498Z,8
2022-09-28T19:18:43.856Z,8
2022-09-28T19:20:27.621Z,8
2022-09-28T19:22:10.946Z,8
2022-09-28T19:23:54.420Z,7
2022-09-28T19:25:37.641Z,8
2022-09-28T19:27:21.156Z,8
2022-09-28T19:29:04.595Z,7
2022-09-28T19:30:47.855Z,8
2022-09-28T19:32:31.342Z,8
2022-09-28T19:35:57.864Z,8
2022-09-28T19:37:41.212Z,8
2022-09-28T19:39:24.624Z,8
2022-09-28T19:41:08.000Z,8
2022-09-28T19:42:51.390Z,8
2022-09-28T19:44:34.867Z,8
2022-09-28T19:46:18.189Z,8
2022-09-28T19:48:01.594Z,8
2022-09-28T19:51:28.098Z,8
2022-09-28T19:53:11.450Z,8
2022-09-28T19:54:54.871Z,8
2022-09-28T19:56:38.248Z,8
2022-09-28T19:58:21.615Z,8
2022-09-28T20:00:04.937Z,8
2022-09-28T20:01:48.418Z,8
2022-09-28T20:06:57.661Z,8
2022-09-28T20:08:41.077Z,8
2022-09-28T20:10:24.492Z,7
2022-09-28T20:12:07.863Z,8
2022-09-28T20:13:51.132Z,8
2022-09-28T20:15:34.519Z,8
2022-09-28T20:17:17.903Z,8
2022-09-28T20:19:01.380Z,8
2022-09-28T20:22:27.915Z,9
2022-09-28T20:24:11.323Z,7
2022-09-28T20:25:54.760Z,7
2022-09-28T20:27:38.131Z,8
2022-09-28T20:29:21.510Z,7
2022-09-28T20:31:04.824Z,7
2022-09-28T20:32:48.300Z,8
2022-09-28T20:34:31.706Z,8
2022-09-28T20:37:58.174Z,8
2022-09-28T20:39:41.559Z,8
2022-09-28T20:41:25.027Z,8
2022-09-28T20:43:08.347Z,8
2022-09-28T20:44:51.918Z,8
2022-09-28T20:46:35.143Z,7
2022-09-28T20:48:18.556Z,8
2022-09-28T20:50:01.948Z,8
2022-09-28T20:55:11.211Z,7
2022-09-28T20:56:54.580Z,8
2022-09-28T20:58:37.968Z,7
2022-09-28T21:00:21.430Z,8
2022-09-28T21:02:04.741Z,8
2022-09-28T21:03:48.037Z,14
2022-09-28T21:05:31.639Z,0
2022-09-28T21:07:14.959Z,1
2022-09-28T21:08:58.682Z,1
2022-09-28T21:10:42.069Z,0
2022-09-28T21:12:25.500Z,0
2022-09-28T21:14:08.859Z,1
2022-09-28T21:15:52.249Z,1
2022-09-28T21:17:35.714Z,1
2022-09-28T21:19:19.027Z,0
2022-09-28T21:21:02.469Z,1
2022-09-28T21:24:28.894Z,1
2022-09-28T21:26:12.320Z,1
2022-09-28T21:27:55.728Z,1
2022-09-28T21:29:39.093Z,1
2022-09-28T21:33:05.879Z,1
2022-09-28T21:34:49.283Z,1
2022-09-28T21:36:32.699Z,2
2022-09-28T21:39:59.138Z,1
2022-09-28T21:41:42.551Z,1
2022-09-28T21:43:26.010Z,1
2022-09-28T21:45:09.339Z,1
2022-09-28T21:46:52.768Z,1
2022-09-28T21:48:36.150Z,1
2022-09-28T21:50:19.542Z,13
2022-09-28T21:52:02.964Z,13
2022-09-28T21:55:29.402Z,1
2022-09-28T21:57:12.660Z,1
2022-09-28T21:58:56.182Z,0
2022-09-28T22:00:39.595Z,1
2022-09-28T22:02:22.934Z,1
2022-09-28T22:04:06.348Z,1
2022-09-28T22:05:49.798Z,0
2022-09-28T22:07:33.219Z,1
2022-09-28T22:12:42.382Z,1
2022-09-28T22:14:25.807Z,1
2022-09-28T22:16:09.105Z,1
2022-09-28T22:17:52.628Z,0
2022-09-28T22:19:35.947Z,1
2022-09-28T22:21:19.413Z,1
2022-09-28T22:23:02.632Z,1
2022-09-28T22:24:46.122Z,1
2022-09-28T22:26:29.478Z,2
2022-09-28T22:28:13.257Z,1
2022-09-28T22:29:56.710Z,1
2022-09-28T22:31:40.063Z,1
2022-09-28T22:33:23.398Z,2
2022-09-28T22:35:06.743Z,1
2022-09-28T22:36:50.242Z,1
2022-09-28T22:38:33.663Z,1
2022-09-28T22:40:16.911Z,1
2022-09-28T22:45:26.172Z,1
2022-09-28T22:47:09.640Z,1
2022-09-28T22:48:53.111Z,2
2022-09-28T22:50:36.437Z,1
2022-09-28T22:52:19.875Z,0
2022-09-28T22:54:03.177Z,0
2022-09-28T22:55:46.540Z,1
2022-09-28T22:57:30.026Z,1
2022-09-28T23:00:56.469Z,1
2022-09-28T23:02:39.811Z,1
2022-09-28T23:04:23.253Z,1
2022-09-28T23:06:06.660Z,1
2022-09-28T23:07:50.012Z,1
2022-09-28T23:09:33.385Z,0
2022-09-28T23:11:16.881Z,1
2022-09-28T23:13:00.240Z,1
2022-09-28T23:14:43.625Z,1
2022-09-28T23:16:27.370Z,1
2022-09-28T23:18:10.814Z,1
2022-09-28T23:19:54.196Z,1
2022-09-28T23:21:37.589Z,1
2022-09-28T23:23:20.867Z,1
2022-09-28T23:25:04.307Z,1
2022-09-28T23:26:47.693Z,0
2022-09-28T23:28:31.062Z,2
2022-09-28T23:30:14.451Z,1
2022-09-28T23:31:58.250Z,1
2022-09-28T23:33:41.577Z,1
2022-09-28T23:35:25.002Z,1
2022-09-28T23:37:08.384Z,0
2022-09-28T23:38:51.782Z,1
2022-09-28T23:40:35.155Z,1
2022-09-28T23:42:18.523Z,1
2022-09-28T23:44:01.968Z,1
2022-09-28T23:45:45.368Z,1
2022-09-28T23:49:11.781Z,0
2022-09-28T23:50:55.217Z,1
2022-09-28T23:52:38.649Z,1
2022-09-28T23:54:22.078Z,1
2022-09-28T23:56:05.502Z,1
2022-09-28T23:57:48.752Z,1
2022-09-28T23:59:32.235Z,2
